Time;durP1;ratioP1;P1;durP2;ratioP2;P2;SDS_P1;SDS_P2;PMS_P1;PMS_P2;Temp;Humidity;BMP_temperature;BMP_pressure;BME280_temperature;BME280_humidity;BME280_pressure;Samples;Min_cycle;Max_cycle;Signal;HPM_P1;HPM_P2
2023/03/07 00:02:30;;;;;;;43.50;26.83;;;1.50;99.90;;;;;;2603583;54;20023;31
2023/03/07 00:05:08;;;;;;;44.97;27.58;;;1.50;99.90;;;;;;2622021;46;20037;31
2023/03/07 00:07:45;;;;;;;48.50;30.52;;;1.60;99.90;;;;;;2603769;54;20946;31
2023/03/07 00:10:22;;;;;;;53.47;32.70;;;1.50;99.90;;;;;;2603529;54;20093;31
2023/03/07 00:12:58;;;;;;;60.67;37.70;;;1.50;99.90;;;;;;2603805;54;20880;31
2023/03/07 00:15:34;;;;;;;63.15;37.90;;;1.60;99.90;;;;;;2603513;54;20149;31
2023/03/07 00:18:12;;;;;;;65.27;39.97;;;1.60;99.90;;;;;;2622226;46;20030;31
2023/03/07 00:20:48;;;;;;;47.90;29.95;;;1.60;99.90;;;;;;2603719;54;20268;31
2023/03/07 00:23:24;;;;;;;52.75;30.70;;;1.60;99.90;;;;;;2603617;54;20772;31
2023/03/07 00:26:01;;;;;;;53.45;32.40;;;1.60;99.90;;;;;;2602985;54;22382;31
2023/03/07 00:28:37;;;;;;;70.55;40.35;;;1.70;99.90;;;;;;2618112;46;20071;31
2023/03/07 00:31:14;;;;;;;68.50;38.95;;;1.60;99.90;;;;;;2603700;54;20776;31
2023/03/07 00:33:55;;;;;;;64.65;37.55;;;1.60;99.90;;;;;;2603767;54;20026;31
2023/03/07 00:36:35;;;;;;;67.77;39.77;;;1.60;99.90;;;;;;2603443;54;20055;31
2023/03/07 00:39:09;;;;;;;57.80;36.03;;;1.60;99.90;;;;;;2603329;54;20133;31
2023/03/07 00:41:44;;;;;;;54.75;34.40;;;1.60;99.90;;;;;;2603722;54;20149;31
2023/03/07 00:44:19;;;;;;;57.13;35.17;;;1.60;99.90;;;;;;2603799;54;20165;31
2023/03/07 00:46:54;;;;;;;65.50;39.95;;;1.60;99.90;;;;;;2603879;54;20232;31
2023/03/07 00:49:33;;;;;;;46.83;29.08;;;1.60;99.90;;;;;;2792375;31;21198;31
2023/03/07 00:52:10;;;;;;;50.85;31.25;;;1.60;99.90;;;;;;2603592;54;20898;31
2023/03/07 00:54:45;;;;;;;;;;;1.60;99.90;;;;;;2603815;54;20107;31
2023/03/07 00:57:21;;;;;;;48.95;27.35;;;1.50;99.90;;;;;;2603561;54;19969;31
2023/03/07 00:59:57;;;;;;;42.58;25.95;;;1.50;99.90;;;;;;2603746;54;20053;31
2023/03/07 01:02:33;;;;;;;43.38;26.88;;;1.50;99.90;;;;;;2622425;46;20884;31
2023/03/07 01:05:15;;;;;;;39.20;25.08;;;1.60;99.90;;;;;;2603623;54;20116;31
2023/03/07 01:07:51;;;;;;;46.47;27.40;;;1.60;99.90;;;;;;2603753;54;20050;31
2023/03/07 01:10:28;;;;;;;54.67;30.15;;;1.60;99.90;;;;;;2603524;54;20046;31
2023/03/07 01:13:03;;;;;;;64.30;34.88;;;1.50;99.90;;;;;;2603402;54;20908;31
2023/03/07 01:15:38;;;;;;;;;;;1.50;99.90;;;;;;2604039;54;20027;31
2023/03/07 01:18:13;;;;;;;57.40;32.50;;;1.50;99.90;;;;;;2603567;54;20748;31
2023/03/07 01:20:53;;;;;;;57.33;34.30;;;1.50;99.90;;;;;;2603466;54;20042;31
2023/03/07 01:23:30;;;;;;;55.60;32.15;;;1.50;99.90;;;;;;2603581;54;20031;31
2023/03/07 01:26:05;;;;;;;64.10;37.05;;;1.50;99.90;;;;;;2622007;46;20049;31
2023/03/07 01:28:42;;;;;;;61.67;33.67;;;1.50;99.90;;;;;;2603498;54;20083;31
2023/03/07 01:31:18;;;;;;;71.35;40.05;;;1.50;99.90;;;;;;2603230;54;20030;31
2023/03/07 01:33:54;;;;;;;58.57;34.63;;;1.50;99.90;;;;;;2603566;54;20089;31
2023/03/07 01:36:35;;;;;;;66.30;37.38;;;1.40;99.90;;;;;;2603455;54;20883;31
2023/03/07 01:39:15;;;;;;;54.75;32.72;;;1.40;99.90;;;;;;2603544;54;20052;31
2023/03/07 01:42:20;;;;;;;66.43;34.95;;;1.40;99.90;;;;;;2603232;54;20834;31
2023/03/07 01:45:03;;;;;;;59.37;32.60;;;1.40;99.90;;;;;;2603651;54;20049;31
2023/03/07 01:48:04;;;;;;;60.95;32.47;;;1.40;99.90;;;;;;2603255;54;20027;31
2023/03/07 01:50:42;;;;;;;58.80;31.30;;;1.40;99.90;;;;;;2621371;46;20026;31
2023/03/07 01:53:21;;;;;;;61.30;33.60;;;1.40;99.90;;;;;;2603364;54;20839;31
2023/03/07 01:56:00;;;;;;;56.95;30.70;;;1.50;99.90;;;;;;2603371;54;20027;31
2023/03/07 01:58:35;;;;;;;59.65;32.35;;;1.40;99.90;;;;;;2603713;54;20101;31
2023/03/07 02:01:12;;;;;;;60.45;33.85;;;1.40;99.90;;;;;;2603471;54;20728;31
2023/03/07 02:03:51;;;;;;;54.75;30.73;;;1.40;99.90;;;;;;2603655;54;20026;31
2023/03/07 02:06:26;;;;;;;57.30;31.30;;;1.30;99.90;;;;;;2621560;46;20030;31
2023/03/07 02:09:04;;;;;;;58.75;31.02;;;1.30;99.90;;;;;;2702136;39;21110;31
2023/03/07 02:11:39;;;;;;;57.30;32.05;;;1.40;99.90;;;;;;2603381;54;20878;31
2023/03/07 02:14:16;;;;;;;50.63;29.08;;;1.30;99.90;;;;;;2603416;54;20026;31
2023/03/07 02:19:32;;;;;;;63.85;35.67;;;1.30;99.90;;;;;;2603367;54;20046;31
2023/03/07 02:22:10;;;;;;;71.47;37.45;;;1.20;99.90;;;;;;2603075;54;20871;31
2023/03/07 02:24:50;;;;;;;63.45;36.15;;;1.30;99.90;;;;;;2621880;46;20030;31
2023/03/07 02:27:29;;;;;;;66.20;36.90;;;1.20;99.90;;;;;;2622117;46;20070;31
2023/03/07 02:30:12;;;;;;;63.45;36.72;;;1.30;99.90;;;;;;2603343;54;20029;31
2023/03/07 02:32:48;;;;;;;64.87;36.20;;;1.20;99.90;;;;;;2603438;54;20037;31
2023/03/07 02:35:26;;;;;;;70.97;38.92;;;1.20;99.90;;;;;;2621654;46;20140;31
2023/03/07 02:38:05;;;;;;;69.67;39.93;;;1.20;99.90;;;;;;2603327;54;20093;31
2023/03/07 02:40:40;;;;;;;73.65;39.65;;;1.20;99.90;;;;;;2603252;54;20832;31
2023/03/07 02:43:21;;;;;;;69.57;36.88;;;1.20;99.90;;;;;;2603460;54;20855;31
2023/03/07 02:45:57;;;;;;;69.35;35.80;;;1.20;99.90;;;;;;2603384;54;20895;31
2023/03/07 02:48:34;;;;;;;79.77;39.67;;;1.20;99.90;;;;;;2603447;54;20854;31
2023/03/07 02:51:10;;;;;;;63.70;36.97;;;1.20;99.90;;;;;;2603249;54;20022;31
2023/03/07 02:53:49;;;;;;;66.90;36.00;;;1.20;99.90;;;;;;2603285;54;20069;31
2023/03/07 02:56:27;;;;;;;83.40;41.25;;;1.20;99.90;;;;;;2602550;54;20146;31
2023/03/07 02:59:06;;;;;;;76.35;40.03;;;1.10;99.90;;;;;;2603226;54;20038;31
2023/03/07 03:01:41;;;;;;;61.05;31.17;;;1.10;99.90;;;;;;2602985;54;20801;31
2023/03/07 03:04:18;;;;;;;69.22;36.85;;;1.10;99.90;;;;;;2603210;54;20030;31
2023/03/07 03:06:53;;;;;;;73.57;38.05;;;1.00;99.90;;;;;;2603047;54;20141;31
2023/03/07 03:09:32;;;;;;;75.70;39.73;;;1.00;99.90;;;;;;2603428;54;19969;31
2023/03/07 03:12:10;;;;;;;82.22;41.17;;;1.00;99.90;;;;;;2603121;54;20826;31
2023/03/07 03:14:46;;;;;;;85.88;39.45;;;1.00;99.90;;;;;;2603151;54;20032;31
2023/03/07 03:17:26;;;;;;;81.53;40.17;;;0.90;99.90;;;;;;2621803;46;19946;31
2023/03/07 03:20:03;;;;;;;76.82;40.20;;;0.90;99.90;;;;;;2603077;54;20054;31
2023/03/07 03:22:39;;;;;;;89.10;41.40;;;0.90;99.90;;;;;;2621819;46;20042;31
2023/03/07 03:25:17;;;;;;;92.95;44.65;;;0.80;99.90;;;;;;2603105;54;20054;31
2023/03/07 03:27:52;;;;;;;101.93;46.08;;;0.70;99.90;;;;;;2603493;54;20059;31
2023/03/07 03:30:31;;;;;;;97.90;45.60;;;0.70;99.90;;;;;;2603022;54;20089;31
2023/03/07 03:33:12;;;;;;;93.80;42.75;;;0.70;99.90;;;;;;2603307;54;20097;31
2023/03/07 03:35:47;;;;;;;100.38;43.78;;;0.70;99.90;;;;;;2603169;54;20038;31
2023/03/07 03:38:23;;;;;;;100.88;45.70;;;0.60;99.90;;;;;;2603338;54;20061;31
2023/03/07 03:40:59;;;;;;;85.85;42.78;;;0.60;99.90;;;;;;2602774;54;20917;31
2023/03/07 03:43:36;;;;;;;95.60;44.17;;;0.60;99.90;;;;;;2603034;54;20174;31
2023/03/07 03:46:13;;;;;;;87.38;40.92;;;0.50;99.90;;;;;;2603282;54;20265;31
2023/03/07 03:48:56;;;;;;;92.13;40.63;;;0.50;99.90;;;;;;2603200;54;20093;31
2023/03/07 03:51:34;;;;;;;129.30;44.03;;;0.50;99.90;;;;;;2603099;54;20042;31
2023/03/07 03:54:11;;;;;;;110.60;44.20;;;0.40;99.90;;;;;;2603289;54;20089;31
2023/03/07 03:56:46;;;;;;;136.57;47.47;;;0.40;99.90;;;;;;2603043;54;20023;31
2023/03/07 03:59:21;;;;;;;161.75;47.80;;;0.40;99.90;;;;;;2602938;54;20090;31
2023/03/07 04:01:58;;;;;;;172.57;48.05;;;0.40;99.90;;;;;;2603009;54;20026;31
2023/03/07 04:04:37;;;;;;;346.95;57.28;;;0.40;99.90;;;;;;2603215;54;20032;31
2023/03/07 04:07:14;;;;;;;353.95;73.28;;;0.30;99.90;;;;;;2621464;47;20026;31
2023/03/07 04:09:54;;;;;;;342.35;66.45;;;0.40;99.90;;;;;;2603112;54;20126;31
2023/03/07 04:12:30;;;;;;;270.73;57.65;;;0.40;99.90;;;;;;2603110;54;20030;31
2023/03/07 04:15:08;;;;;;;467.40;65.10;;;0.40;99.90;;;;;;2603976;54;20121;31
2023/03/07 04:17:46;;;;;;;216.35;53.45;;;0.40;99.90;;;;;;2702446;39;21141;31
2023/03/07 04:20:24;;;;;;;229.00;54.25;;;0.40;99.90;;;;;;2603846;54;20921;31
2023/03/07 04:23:01;;;;;;;366.42;55.75;;;0.40;99.90;;;;;;2622280;46;20106;31
2023/03/07 04:25:39;;;;;;;330.88;55.75;;;0.40;99.90;;;;;;2603521;54;20815;31
2023/03/07 04:28:14;;;;;;;322.20;55.42;;;0.40;99.90;;;;;;2603940;54;20110;31
2023/03/07 04:30:51;;;;;;;188.10;50.83;;;0.40;99.90;;;;;;2603182;54;20165;31
2023/03/07 04:33:28;;;;;;;156.70;48.17;;;0.40;99.90;;;;;;2622188;46;20032;31
2023/03/07 04:36:03;;;;;;;238.65;52.80;;;0.40;99.90;;;;;;2603821;54;19943;31
2023/03/07 04:38:41;;;;;;;194.45;53.25;;;0.40;99.90;;;;;;2603663;54;20022;31
2023/03/07 04:41:19;;;;;;;164.43;52.83;;;0.40;99.90;;;;;;2604008;54;20077;31
2023/03/07 04:43:59;;;;;;;185.15;53.80;;;0.40;99.90;;;;;;2603695;54;20033;31
2023/03/07 04:46:34;;;;;;;140.60;51.57;;;0.40;99.90;;;;;;2622235;46;20585;31
2023/03/07 04:49:12;;;;;;;141.65;51.45;;;0.30;99.90;;;;;;2603765;54;21067;31
2023/03/07 04:51:47;;;;;;;126.82;48.85;;;0.30;99.90;;;;;;2603686;54;20842;31
2023/03/07 04:54:26;;;;;;;;;;;0.30;99.90;;;;;;2603998;54;20053;31
2023/03/07 04:57:02;;;;;;;118.43;44.50;;;0.30;99.90;;;;;;2720782;39;20460;31
2023/03/07 04:59:38;;;;;;;122.50;47.22;;;0.30;99.90;;;;;;2603937;54;20810;31
2023/03/07 05:02:17;;;;;;;135.77;50.58;;;0.30;99.90;;;;;;2603790;54;20046;31
2023/03/07 05:04:52;;;;;;;123.80;48.00;;;0.30;99.90;;;;;;2603647;54;20093;31
2023/03/07 05:07:29;;;;;;;124.35;49.28;;;0.30;99.90;;;;;;2603791;54;21087;31
2023/03/07 05:10:12;;;;;;;117.15;45.55;;;0.30;99.90;;;;;;2603727;54;20033;31
2023/03/07 05:12:47;;;;;;;107.40;45.30;;;0.30;99.90;;;;;;2603507;54;20852;31
2023/03/07 05:15:22;;;;;;;110.00;47.72;;;0.40;99.90;;;;;;2603682;54;20049;31
2023/03/07 05:17:57;;;;;;;109.90;47.63;;;0.30;99.90;;;;;;2603454;54;19942;31
2023/03/07 05:20:35;;;;;;;101.68;46.00;;;0.40;99.90;;;;;;2603506;54;20081;31
2023/03/07 05:23:10;;;;;;;111.60;47.03;;;0.40;99.90;;;;;;2603945;54;20161;31
2023/03/07 05:25:51;;;;;;;103.20;44.43;;;0.40;99.90;;;;;;2621945;46;20054;31
2023/03/07 05:28:29;;;;;;;101.38;43.90;;;0.40;99.90;;;;;;2603721;54;20118;31
2023/03/07 05:31:09;;;;;;;91.35;42.20;;;0.50;99.90;;;;;;2603742;54;20026;31
2023/03/07 05:33:44;;;;;;;93.43;42.05;;;0.40;99.90;;;;;;2603651;54;20870;31
2023/03/07 05:36:25;;;;;;;88.95;40.92;;;0.40;99.90;;;;;;2603721;54;20612;31
2023/03/07 05:42:26;;;;;;;88.75;39.42;;;0.50;99.90;;;;;;2603430;54;20953;31
2023/03/07 05:45:01;;;;;;;82.30;39.72;;;0.50;99.90;;;;;;2603366;54;20023;31
2023/03/07 05:47:37;;;;;;;81.55;38.35;;;0.50;99.90;;;;;;2603454;54;20170;31
2023/03/07 05:50:17;;;;;;;79.07;38.83;;;0.50;99.90;;;;;;2603565;54;20584;31
2023/03/07 05:52:54;;;;;;;75.00;37.95;;;0.50;99.90;;;;;;2612351;46;20874;31
2023/03/07 05:55:33;;;;;;;79.93;37.90;;;0.60;99.90;;;;;;2602850;54;20042;31
2023/03/07 05:58:13;;;;;;;69.65;35.75;;;0.60;99.90;;;;;;2616908;46;20034;31
2023/03/07 06:00:53;;;;;;;78.15;39.45;;;0.60;99.90;;;;;;2603528;54;20125;31
2023/03/07 06:03:34;;;;;;;63.70;33.93;;;0.60;99.90;;;;;;2603459;54;20058;31
2023/03/07 06:06:11;;;;;;;55.83;29.20;;;0.70;99.90;;;;;;2603446;54;20077;31
2023/03/07 06:08:49;;;;;;;43.45;25.27;;;0.90;99.90;;;;;;2603546;54;20026;31
2023/03/07 06:11:24;;;;;;;38.72;22.77;;;1.00;99.90;;;;;;2622286;46;20784;31
2023/03/07 06:14:03;;;;;;;43.40;25.10;;;1.00;99.90;;;;;;2603564;54;20050;31
2023/03/07 06:16:39;;;;;;;44.72;23.90;;;1.10;99.90;;;;;;2621708;46;20147;31
2023/03/07 06:19:14;;;;;;;39.97;24.45;;;1.20;99.90;;;;;;2603356;54;20034;31
2023/03/07 06:21:49;;;;;;;45.13;24.08;;;1.20;99.90;;;;;;2603539;54;20799;31
2023/03/07 06:24:28;;;;;;;45.20;23.45;;;1.20;99.90;;;;;;2603431;54;20823;31
2023/03/07 06:29:42;;;;;;;41.40;23.95;;;1.20;99.90;;;;;;2603490;54;20046;31
2023/03/07 06:32:22;;;;;;;39.70;23.98;;;1.20;99.90;;;;;;2603376;54;20067;31
2023/03/07 06:35:01;;;;;;;38.00;23.53;;;1.20;99.90;;;;;;2603356;54;20030;31
2023/03/07 06:37:38;;;;;;;40.08;23.45;;;1.30;99.90;;;;;;2602926;54;20269;31
2023/03/07 06:40:14;;;;;;;;;;;1.30;99.90;;;;;;2622353;46;20930;31
2023/03/07 06:42:52;;;;;;;46.20;24.30;;;1.30;99.90;;;;;;2603181;54;20025;31
2023/03/07 06:45:25;;;;;;;37.70;21.90;;;1.50;99.90;;;;;;2702143;39;21022;31
2023/03/07 06:48:03;;;;;;;39.33;23.10;;;1.70;99.90;;;;;;2603435;54;20054;31
2023/03/07 06:50:40;;;;;;;35.88;21.23;;;1.80;99.90;;;;;;2603225;54;20025;31
2023/03/07 06:53:15;;;;;;;35.67;21.58;;;2.00;99.90;;;;;;2603122;54;20085;31
2023/03/07 06:55:51;;;;;;;35.07;21.30;;;2.30;99.90;;;;;;2603108;54;21015;31
2023/03/07 06:58:27;;;;;;;34.10;20.63;;;2.60;99.90;;;;;;2621266;46;20053;31
2023/03/07 07:01:04;;;;;;;30.52;19.67;;;2.80;99.90;;;;;;2603062;54;20109;31
2023/03/07 07:03:47;;;;;;;35.20;21.83;;;3.10;99.90;;;;;;2603261;54;20121;31
2023/03/07 07:06:22;;;;;;;34.88;21.45;;;3.30;99.90;;;;;;2603785;46;20027;31
2023/03/07 07:08:59;;;;;;;32.92;22.85;;;3.60;99.90;;;;;;2621464;46;20153;31
2023/03/07 07:11:39;;;;;;;37.95;21.20;;;3.80;99.90;;;;;;2621941;46;20023;31
2023/03/07 07:14:18;;;;;;;32.75;19.95;;;4.00;99.90;;;;;;2603237;54;20060;31
2023/03/07 07:16:55;;;;;;;34.25;22.67;;;4.20;99.90;;;;;;2603355;54;20837;31
2023/03/07 07:19:35;;;;;;;35.90;21.38;;;4.40;99.90;;;;;;2603130;54;20033;31
2023/03/07 07:22:13;;;;;;;36.05;22.00;;;4.70;99.90;;;;;;2603183;54;20785;31
2023/03/07 07:24:50;;;;;;;35.10;20.88;;;4.90;99.90;;;;;;2602291;54;20901;31
2023/03/07 07:27:27;;;;;;;37.37;22.27;;;5.20;99.90;;;;;;2602576;54;20034;31
2023/03/07 07:30:06;;;;;;;36.88;22.85;;;5.30;99.90;;;;;;2620966;47;20242;31
2023/03/07 07:32:46;;;;;;;34.00;21.00;;;5.50;99.90;;;;;;2602309;54;20034;31
2023/03/07 07:35:24;;;;;;;;;;;5.80;99.90;;;;;;2603344;54;20056;31
2023/03/07 07:38:02;;;;;;;39.63;23.33;;;6.00;99.90;;;;;;2616181;47;20780;31
2023/03/07 07:40:37;;;;;;;34.08;21.63;;;6.20;99.90;;;;;;2603389;54;20901;31
2023/03/07 07:43:15;;;;;;;33.37;20.50;;;6.40;99.90;;;;;;2603136;54;20032;31
2023/03/07 07:46:02;;;;;;;29.48;19.98;;;6.50;99.90;;;;;;2603145;54;20130;31
2023/03/07 07:48:41;;;;;;;28.00;19.63;;;6.60;99.90;;;;;;2602616;54;20057;31
2023/03/07 07:51:25;;;;;;;28.15;19.60;;;6.80;99.90;;;;;;2604036;54;20037;31
2023/03/07 07:54:01;;;;;;;29.00;19.85;;;7.00;99.90;;;;;;2603776;54;20031;31
2023/03/07 07:56:41;;;;;;;27.95;19.42;;;7.00;99.90;;;;;;2603842;54;20089;31
2023/03/07 08:01:55;;;;;;;30.13;19.15;;;7.20;99.90;;;;;;2603746;54;20243;31
2023/03/07 08:04:34;;;;;;;27.33;19.73;;;7.40;99.90;;;;;;2603897;54;20026;31
2023/03/07 08:07:15;;;;;;;26.53;18.47;;;7.60;99.90;;;;;;2603755;54;20101;31
2023/03/07 08:09:50;;;;;;;30.42;20.05;;;7.70;99.90;;;;;;2622292;46;20321;31
2023/03/07 08:12:32;;;;;;;28.05;19.17;;;7.90;99.90;;;;;;2603697;54;20889;31
2023/03/07 08:15:07;;;;;;;26.65;18.73;;;7.90;99.90;;;;;;2621734;46;20022;31
2023/03/07 08:17:50;;;;;;;26.77;18.75;;;8.00;99.90;;;;;;2603817;54;20801;31
2023/03/07 08:20:31;;;;;;;26.77;19.20;;;8.10;99.90;;;;;;2603922;54;20766;31
2023/03/07 08:23:12;;;;;;;23.58;18.10;;;8.40;99.90;;;;;;2622446;46;20026;31
2023/03/07 08:25:48;;;;;;;23.27;15.90;;;8.60;99.90;;;;;;2603752;54;20052;31
2023/03/07 08:28:26;;;;;;;24.77;17.48;;;8.60;99.90;;;;;;2603957;54;19934;31
2023/03/07 08:31:07;;;;;;;20.92;15.43;;;8.80;99.90;;;;;;2603934;54;20027;31
2023/03/07 08:33:45;;;;;;;19.30;15.25;;;9.00;99.90;;;;;;2603687;54;20031;31
2023/03/07 08:36:23;;;;;;;21.13;15.93;;;8.90;99.90;;;;;;2603721;54;20031;31
2023/03/07 08:39:09;;;;;;;21.50;16.05;;;8.80;99.90;;;;;;2622471;46;19935;31
2023/03/07 08:41:55;;;;;;;27.35;16.95;;;9.00;99.90;;;;;;2603655;54;20106;31
2023/03/07 08:44:32;;;;;;;22.90;15.63;;;9.30;99.90;;;;;;2604000;54;20026;31
2023/03/07 08:47:12;;;;;;;22.40;14.20;;;9.40;99.90;;;;;;2603783;54;20109;31
2023/03/07 08:50:03;;;;;;;22.17;14.38;;;9.60;99.90;;;;;;2622386;46;20191;31
2023/03/07 08:52:40;;;;;;;22.02;13.95;;;9.70;99.90;;;;;;2603951;54;20895;31
2023/03/07 08:55:22;;;;;;;19.05;13.23;;;9.60;99.90;;;;;;2603887;54;20033;31
2023/03/07 08:58:03;;;;;;;20.95;13.93;;;9.70;99.90;;;;;;2603912;54;20089;31
2023/03/07 09:00:42;;;;;;;18.05;13.30;;;9.80;99.90;;;;;;2621853;46;20121;31
2023/03/07 09:03:23;;;;;;;18.35;13.27;;;10.00;99.90;;;;;;2604021;54;20878;31
2023/03/07 09:05:58;;;;;;;19.65;12.88;;;10.00;99.90;;;;;;2603039;54;20023;31
2023/03/07 09:08:33;;;;;;;18.75;13.35;;;10.00;99.90;;;;;;2603156;54;20794;31
2023/03/07 09:11:13;;;;;;;18.30;12.65;;;10.00;99.90;;;;;;2604014;54;20030;31
2023/03/07 09:13:50;;;;;;;18.85;13.40;;;10.00;99.90;;;;;;2622549;46;20851;31
2023/03/07 09:16:27;;;;;;;16.83;12.23;;;10.00;99.90;;;;;;2622215;46;20027;31
2023/03/07 09:19:04;;;;;;;19.50;13.77;;;10.10;99.90;;;;;;2603827;54;20130;31
2023/03/07 09:21:42;;;;;;;20.57;13.30;;;10.30;99.90;;;;;;2603584;54;20338;31
2023/03/07 09:24:22;;;;;;;20.42;12.57;;;10.40;99.90;;;;;;2622109;46;20064;31
2023/03/07 09:27:15;;;;;;;16.92;12.45;;;10.60;99.90;;;;;;2603523;54;20989;31
2023/03/07 09:29:54;;;;;;;19.85;12.25;;;10.30;99.90;;;;;;2603811;54;20026;31
2023/03/07 09:32:30;;;;;;;16.43;11.70;;;10.10;99.90;;;;;;2603698;54;20022;31
2023/03/07 09:35:09;;;;;;;16.52;12.32;;;9.60;99.90;;;;;;2603349;54;20031;31
2023/03/07 09:37:51;;;;;;;16.55;12.50;;;9.30;99.90;;;;;;2603795;54;20127;31
2023/03/07 09:40:27;;;;;;;21.73;12.18;;;9.10;99.90;;;;;;2603855;54;20904;31
2023/03/07 09:43:12;;;;;;;16.60;11.90;;;8.80;99.90;;;;;;2603684;54;20031;31
2023/03/07 09:46:01;;;;;;;16.30;11.75;;;8.50;99.90;;;;;;2621833;46;20258;31
2023/03/07 09:48:53;;;;;;;18.67;12.05;;;8.20;99.90;;;;;;2603445;54;20050;31
2023/03/07 09:51:29;;;;;;;18.15;12.50;;;8.10;99.90;;;;;;2773861;31;21065;31
2023/03/07 09:54:06;;;;;;;24.65;12.25;;;8.00;99.90;;;;;;2603466;54;20082;31
2023/03/07 09:56:44;;;;;;;17.02;11.32;;;7.90;99.90;;;;;;2603540;54;20056;31
2023/03/07 09:59:27;;;;;;;19.15;13.25;;;7.80;99.90;;;;;;2603707;54;20026;31
2023/03/07 10:02:00;;;;;;;20.00;12.73;;;7.80;99.90;;;;;;2603529;54;20060;31
2023/03/07 10:04:42;;;;;;;16.80;10.90;;;7.70;99.90;;;;;;2603418;54;20046;31
2023/03/07 10:07:19;;;;;;;25.65;13.40;;;7.70;99.90;;;;;;2603561;54;20029;31
2023/03/07 10:09:56;;;;;;;17.42;11.65;;;7.70;99.90;;;;;;2603498;54;20034;31
2023/03/07 10:12:45;;;;;;;16.15;10.15;;;7.50;99.90;;;;;;2602564;54;20034;31
2023/03/07 10:15:38;;;;;;;16.40;10.57;;;7.50;99.90;;;;;;2603636;54;20917;31
2023/03/07 10:18:36;;;;;;;17.67;11.18;;;7.50;99.90;;;;;;2621704;46;20026;31
2023/03/07 10:21:17;;;;;;;15.68;10.35;;;7.60;99.90;;;;;;2603658;54;20161;31
2023/03/07 10:26:29;;;;;;;13.63;9.55;;;7.60;99.90;;;;;;2602848;54;20988;31
2023/03/07 10:29:10;;;;;;;16.05;10.45;;;7.60;99.90;;;;;;2602552;54;20025;31
2023/03/07 10:31:49;;;;;;;16.93;10.83;;;7.50;99.90;;;;;;2603500;54;20022;31
2023/03/07 10:34:27;;;;;;;21.40;10.35;;;7.50;99.90;;;;;;2603336;54;20105;31
2023/03/07 10:37:10;;;;;;;18.25;11.73;;;7.50;99.90;;;;;;2603304;54;20027;31
2023/03/07 10:39:46;;;;;;;15.43;10.38;;;7.40;99.90;;;;;;2603510;54;20057;31
2023/03/07 10:42:22;;;;;;;16.77;10.73;;;7.30;99.90;;;;;;2603326;54;20038;31
2023/03/07 10:45:02;;;;;;;14.32;10.18;;;7.30;99.90;;;;;;2603508;54;19934;31
2023/03/07 10:47:42;;;;;;;15.50;11.30;;;7.30;99.90;;;;;;2621991;46;20061;31
2023/03/07 10:50:35;;;;;;;15.13;10.43;;;7.30;99.90;;;;;;2603537;54;20029;31
2023/03/07 10:53:16;;;;;;;15.25;10.35;;;7.20;99.90;;;;;;2603479;54;20026;31
2023/03/07 10:55:52;;;;;;;15.43;9.00;;;7.20;99.90;;;;;;2621730;46;20857;31
2023/03/07 10:58:30;;;;;;;14.60;9.63;;;7.10;99.90;;;;;;2621558;46;20182;31
2023/03/07 11:01:16;;;;;;;12.80;8.95;;;7.10;99.90;;;;;;2602356;54;20847;31
2023/03/07 11:04:01;;;;;;;13.85;9.00;;;7.10;99.90;;;;;;2621762;46;20038;31
2023/03/07 11:06:39;;;;;;;14.23;9.38;;;7.10;99.90;;;;;;2603444;54;20042;31
2023/03/07 11:09:14;;;;;;;13.70;8.98;;;7.20;99.90;;;;;;2603395;54;20056;31
2023/03/07 11:11:54;;;;;;;15.33;9.20;;;7.30;99.90;;;;;;2603328;54;20048;31
2023/03/07 11:14:30;;;;;;;13.70;9.50;;;7.30;99.90;;;;;;2603125;54;21112;31
2023/03/07 11:17:16;;;;;;;14.02;8.90;;;7.30;99.90;;;;;;2603374;54;20031;31
2023/03/07 11:19:58;;;;;;;12.60;8.05;;;7.20;99.90;;;;;;2603206;54;20900;31
2023/03/07 11:22:35;;;;;;;11.23;8.10;;;7.10;99.90;;;;;;2602841;54;20034;31
2023/03/07 11:25:17;;;;;;;13.13;7.90;;;7.10;99.90;;;;;;2603315;54;20038;31
2023/03/07 11:30:29;;;;;;;11.60;7.90;;;7.10;99.90;;;;;;2603063;54;20770;31
2023/03/07 11:33:11;;;;;;;13.50;9.00;;;7.10;99.90;;;;;;2603093;54;20093;31
2023/03/07 11:35:59;;;;;;;14.50;9.63;;;7.10;99.90;;;;;;2603200;54;20249;31
2023/03/07 11:38:40;;;;;;;12.65;9.50;;;7.10;99.90;;;;;;2603057;54;20034;31
2023/03/07 11:41:18;;;;;;;11.88;8.10;;;7.10;99.90;;;;;;2602942;54;20061;31
2023/03/07 11:44:06;;;;;;;16.23;8.63;;;7.20;99.90;;;;;;2603215;54;20081;31
2023/03/07 11:46:50;;;;;;;13.93;8.40;;;7.10;99.90;;;;;;2602952;54;20893;31
2023/03/07 11:49:45;;;;;;;11.35;8.10;;;7.20;99.90;;;;;;2621441;47;20030;31
2023/03/07 11:52:30;;;;;;;11.00;7.60;;;7.20;99.90;;;;;;2602751;54;20085;31
2023/03/07 11:55:12;;;;;;;10.98;7.80;;;7.20;99.90;;;;;;2602966;54;20034;31
2023/03/07 11:57:54;;;;;;;12.60;8.00;;;7.20;99.90;;;;;;2602983;54;20790;31
2023/03/07 12:00:34;;;;;;;10.48;7.45;;;7.20;99.90;;;;;;2603348;54;20156;31
2023/03/07 12:03:23;;;;;;;11.48;8.15;;;7.20;99.90;;;;;;2602852;54;20091;31
2023/03/07 12:06:23;;;;;;;12.25;8.43;;;7.10;99.90;;;;;;2602918;54;20033;31
2023/03/07 12:09:15;;;;;;;10.80;7.20;;;7.10;99.90;;;;;;2602914;54;20787;31
2023/03/07 12:12:10;;;;;;;12.60;7.93;;;7.20;99.90;;;;;;2602890;54;20034;31
2023/03/07 12:14:45;;;;;;;13.50;7.50;;;7.20;99.90;;;;;;2602854;54;20044;31
2023/03/07 12:17:26;;;;;;;12.07;7.32;;;7.20;99.90;;;;;;2602680;54;20834;31
2023/03/07 12:20:00;;;;;;;12.07;7.60;;;7.30;99.90;;;;;;2603117;54;20822;31
2023/03/07 12:22:39;;;;;;;11.13;6.87;;;7.30;99.90;;;;;;2603155;54;20093;31
2023/03/07 12:25:23;;;;;;;9.50;6.30;;;7.40;99.90;;;;;;2602375;54;20022;31
2023/03/07 12:28:05;;;;;;;9.82;6.63;;;7.40;99.90;;;;;;2602765;54;20077;31
2023/03/07 12:30:51;;;;;;;10.38;6.45;;;7.40;99.90;;;;;;2602224;54;20054;31
2023/03/07 12:33:30;;;;;;;10.65;7.40;;;7.30;99.90;;;;;;2621630;47;20081;31
2023/03/07 12:36:06;;;;;;;10.20;6.70;;;7.40;99.90;;;;;;2603484;54;20063;31
2023/03/07 12:38:47;;;;;;;10.05;6.72;;;7.40;99.90;;;;;;2603824;54;20180;31
2023/03/07 12:41:40;;;;;;;11.20;7.27;;;7.40;99.90;;;;;;2603693;54;20856;31
2023/03/07 12:44:17;;;;;;;10.88;6.85;;;7.40;99.90;;;;;;2603933;54;20037;31
2023/03/07 12:46:56;;;;;;;8.73;6.43;;;7.40;99.90;;;;;;2622464;46;20030;31
2023/03/07 12:49:36;;;;;;;8.60;6.30;;;7.50;99.90;;;;;;2621988;46;20026;31
2023/03/07 12:52:22;;;;;;;9.50;6.18;;;7.40;99.90;;;;;;2603755;54;19941;31
2023/03/07 12:55:01;;;;;;;11.25;7.35;;;7.40;99.90;;;;;;2603821;54;20046;31
2023/03/07 12:57:42;;;;;;;12.07;7.85;;;7.50;99.90;;;;;;2603482;54;20130;31
2023/03/07 13:00:19;;;;;;;11.75;6.80;;;7.50;99.90;;;;;;2603875;54;20037;31
2023/03/07 13:03:03;;;;;;;9.33;6.87;;;7.50;99.90;;;;;;2604098;54;20030;31
2023/03/07 13:05:39;;;;;;;11.10;6.70;;;7.50;99.90;;;;;;2603552;54;19943;31
2023/03/07 13:08:26;;;;;;;11.25;7.57;;;7.50;99.90;;;;;;2603635;54;20158;31
2023/03/07 13:11:01;;;;;;;10.77;6.50;;;7.50;99.90;;;;;;2603572;54;20027;31
2023/03/07 13:14:01;;;;;;;8.77;5.90;;;7.50;99.90;;;;;;2603491;54;20029;31
2023/03/07 13:16:41;;;;;;;8.55;5.65;;;7.50;99.90;;;;;;2603560;54;20058;31
2023/03/07 13:19:33;;;;;;;12.02;6.47;;;7.50;99.90;;;;;;2603647;54;20038;31
2023/03/07 13:22:08;;;;;;;6.93;4.93;;;7.50;99.90;;;;;;2603616;54;20042;31
2023/03/07 13:24:43;;;;;;;7.93;5.40;;;7.50;99.90;;;;;;2603744;54;20034;31
2023/03/07 13:27:19;;;;;;;8.43;5.47;;;7.60;99.90;;;;;;2702357;39;21038;31
2023/03/07 13:30:23;;;;;;;7.83;4.90;;;7.60;99.90;;;;;;2603772;54;20090;31
2023/03/07 13:32:59;;;;;;;9.93;4.87;;;7.60;99.90;;;;;;2603668;54;20309;31
2023/03/07 13:35:57;;;;;;;7.55;5.80;;;7.50;99.90;;;;;;2603514;54;20124;31
2023/03/07 13:38:38;;;;;;;7.50;5.05;;;7.50;99.90;;;;;;2621980;46;20891;31
2023/03/07 13:41:14;;;;;;;7.93;5.55;;;7.50;99.90;;;;;;2603642;54;20832;31
2023/03/07 13:43:59;;;;;;;;;;;7.50;99.90;;;;;;2603741;54;20027;31
2023/03/07 13:46:51;;;;;;;7.72;5.57;;;7.40;99.90;;;;;;2622139;46;19950;31
2023/03/07 13:49:43;;;;;;;8.25;5.25;;;7.50;99.90;;;;;;2603531;54;20023;31
2023/03/07 13:52:43;;;;;;;7.47;5.15;;;7.50;99.90;;;;;;2603699;54;20041;31
2023/03/07 13:55:40;;;;;;;7.70;5.27;;;7.50;99.90;;;;;;2621837;46;20049;31
2023/03/07 13:58:21;;;;;;;8.57;5.30;;;7.50;99.90;;;;;;2603291;54;20049;31
2023/03/07 14:00:59;;;;;;;8.23;5.77;;;7.60;99.90;;;;;;2609265;46;20038;31
2023/03/07 14:03:39;;;;;;;8.32;5.60;;;7.50;99.90;;;;;;2603408;54;20046;31
2023/03/07 14:06:17;;;;;;;7.50;5.45;;;7.60;99.90;;;;;;2603491;54;20030;31
2023/03/07 14:08:53;;;;;;;7.78;4.82;;;7.60;99.90;;;;;;2603513;54;20092;31
2023/03/07 14:11:33;;;;;;;8.23;5.43;;;7.60;99.90;;;;;;2603459;54;20034;31